Time;durP1;ratioP1;P1;durP2;ratioP2;P2;SDS_P1;SDS_P2;PMS_P1;PMS_P2;Temp;Humidity;BMP_temperature;BMP_pressure;BME280_temperature;BME280_humidity;BME280_pressure;Samples;Min_cycle;Max_cycle;Signal;HPM_P1;HPM_P2
2022/03/31 00:02:19;;;;;;;5.45;2.65;;;;;;;;;;5302015;28;20023;-67
2022/03/31 00:04:51;;;;;;;3.00;2.20;;;;;;;;;;5301226;28;20043;-67
2022/03/31 00:07:22;;;;;;;3.58;2.60;;;;;;;;;;5301423;28;20455;-67
2022/03/31 00:09:53;;;;;;;6.95;3.20;;;;;;;;;;5301592;28;20016;-69
2022/03/31 00:12:25;;;;;;;3.42;2.30;;;;;;;;;;5301299;28;20107;-67
2022/03/31 00:14:56;;;;;;;2.97;2.42;;;;;;;;;;5301153;28;20035;-67
2022/03/31 00:17:27;;;;;;;2.92;2.33;;;;;;;;;;5301612;28;20123;-66
2022/03/31 00:19:58;;;;;;;4.07;2.10;;;;;;;;;;5300659;28;20462;-67
2022/03/31 00:22:30;;;;;;;4.43;2.70;;;;;;;;;;5301562;28;20025;-67
2022/03/31 00:25:01;;;;;;;3.65;2.42;;;;;;;;;;5301578;28;20029;-67
2022/03/31 00:27:32;;;;;;;5.90;2.90;;;;;;;;;;5300782;28;20019;-67
2022/03/31 00:30:05;;;;;;;4.78;2.67;;;;;;;;;;5301396;28;20387;-67
2022/03/31 00:32:36;;;;;;;3.85;2.47;;;;;;;;;;5302007;28;20024;-67
2022/03/31 00:35:09;;;;;;;4.15;2.65;;;;;;;;;;5304308;28;20493;-68
2022/03/31 00:37:44;;;;;;;5.03;2.95;;;;;;;;;;5305209;28;20019;-67
2022/03/31 00:40:16;;;;;;;4.13;3.25;;;;;;;;;;5304630;28;20020;-67
2022/03/31 00:42:49;;;;;;;3.97;3.20;;;;;;;;;;5304934;28;20052;-68
2022/03/31 00:45:20;;;;;;;4.45;3.67;;;;;;;;;;5305688;28;20530;-67
2022/03/31 00:47:53;;;;;;;6.28;3.30;;;;;;;;;;5304258;28;20103;-68
2022/03/31 00:50:26;;;;;;;4.68;3.80;;;;;;;;;;5305202;28;20020;-67
2022/03/31 00:52:57;;;;;;;4.93;3.90;;;;;;;;;;5304792;28;20016;-69
2022/03/31 00:55:29;;;;;;;7.25;4.40;;;;;;;;;;5304605;28;20028;-68
2022/03/31 00:58:00;;;;;;;5.28;4.43;;;;;;;;;;5304598;28;20020;-68
2022/03/31 01:00:32;;;;;;;6.85;4.63;;;;;;;;;;5304675;28;20031;-68
2022/03/31 01:03:03;;;;;;;7.93;4.78;;;;;;;;;;5304007;28;20039;-68
2022/03/31 01:05:37;;;;;;;6.07;4.65;;;;;;;;;;5304574;28;20131;-68
2022/03/31 01:08:10;;;;;;;7.15;5.03;;;;;;;;;;5304628;28;20077;-68
2022/03/31 01:10:41;;;;;;;7.43;5.68;;;;;;;;;;5303522;28;20020;-68
2022/03/31 01:13:13;;;;;;;8.02;5.38;;;;;;;;;;5304743;28;20019;-68
2022/03/31 01:15:44;;;;;;;8.48;5.00;;;;;;;;;;5303368;28;20055;-68
2022/03/31 01:18:16;;;;;;;6.70;5.72;;;;;;;;;;5304828;28;20016;-68
2022/03/31 01:20:47;;;;;;;9.38;5.32;;;;;;;;;;5304175;28;20431;-68
2022/03/31 01:23:18;;;;;;;6.78;5.10;;;;;;;;;;5304072;28;20044;-68
2022/03/31 01:25:49;;;;;;;6.57;4.95;;;;;;;;;;5304111;28;20090;-68
2022/03/31 01:28:21;;;;;;;6.70;5.07;;;;;;;;;;5304442;28;20032;-68
2022/03/31 01:30:52;;;;;;;7.07;5.78;;;;;;;;;;5303061;28;20020;-68
2022/03/31 01:33:23;;;;;;;5.40;4.63;;;;;;;;;;5304300;28;20409;-68
2022/03/31 01:35:55;;;;;;;6.63;5.38;;;;;;;;;;5303763;28;20445;-68
2022/03/31 01:38:26;;;;;;;7.38;5.10;;;;;;;;;;5303528;28;20020;-68
2022/03/31 01:40:57;;;;;;;6.45;5.38;;;;;;;;;;5303737;28;20044;-68
2022/03/31 01:43:29;;;;;;;8.43;6.13;;;;;;;;;;5303485;28;20024;-68
2022/03/31 01:46:00;;;;;;;7.30;5.30;;;;;;;;;;5303246;28;20031;-68
2022/03/31 01:48:31;;;;;;;7.45;5.57;;;;;;;;;;5303923;28;20073;-68
2022/03/31 01:51:04;;;;;;;10.02;6.35;;;;;;;;;;5303120;28;20054;-68
2022/03/31 01:53:37;;;;;;;9.18;5.43;;;;;;;;;;5303561;28;20024;-68
2022/03/31 01:56:08;;;;;;;7.53;5.97;;;;;;;;;;5303863;28;20137;-68
2022/03/31 01:58:39;;;;;;;8.30;5.85;;;;;;;;;;5303025;28;20103;-68
2022/03/31 02:01:10;;;;;;;10.38;6.75;;;;;;;;;;5303620;28;20031;-67
2022/03/31 02:03:41;;;;;;;11.52;7.93;;;;;;;;;;5303572;28;20012;-67
2022/03/31 02:06:13;;;;;;;10.15;7.72;;;;;;;;;;5302750;28;20031;-66
2022/03/31 02:08:45;;;;;;;9.98;8.25;;;;;;;;;;5303628;28;20103;-67
2022/03/31 02:11:17;;;;;;;13.02;8.50;;;;;;;;;;5303912;28;20020;-67
2022/03/31 02:13:49;;;;;;;12.70;9.55;;;;;;;;;;5302377;28;20024;-67
2022/03/31 02:16:20;;;;;;;12.55;8.32;;;;;;;;;;5303345;28;20066;-66
2022/03/31 02:18:51;;;;;;;10.90;8.07;;;;;;;;;;5302382;28;20520;-67
2022/03/31 02:21:22;;;;;;;13.10;9.40;;;;;;;;;;5303692;28;20097;-67
2022/03/31 02:23:54;;;;;;;16.13;11.30;;;;;;;;;;5302953;28;20016;-67
2022/03/31 02:26:26;;;;;;;13.73;10.02;;;;;;;;;;5302733;28;20039;-67
2022/03/31 02:28:57;;;;;;;14.05;9.98;;;;;;;;;;5302737;28;20027;-67
2022/03/31 02:31:28;;;;;;;12.88;9.85;;;;;;;;;;5303059;28;20123;-67
2022/03/31 02:34:00;;;;;;;13.05;9.23;;;;;;;;;;5302242;28;20485;-67
2022/03/31 02:36:31;;;;;;;11.20;8.20;;;;;;;;;;5302736;28;20034;-67
2022/03/31 02:39:02;;;;;;;10.65;8.38;;;;;;;;;;5302923;28;20154;-67
2022/03/31 02:41:33;;;;;;;10.68;7.60;;;;;;;;;;5301946;28;20032;-67
2022/03/31 02:44:05;;;;;;;11.00;7.32;;;;;;;;;;5303075;28;20104;-66
2022/03/31 02:46:37;;;;;;;10.93;8.43;;;;;;;;;;5302799;28;20023;-67
2022/03/31 02:49:08;;;;;;;9.95;7.50;;;;;;;;;;5302276;28;20020;-69
2022/03/31 02:51:39;;;;;;;9.15;6.50;;;;;;;;;;5302454;28;20024;-68
2022/03/31 02:57:01;;;;;;;6.72;5.45;;;;;;;;;;5301925;28;20024;-67
2022/03/31 02:59:32;;;;;;;8.25;6.28;;;;;;;;;;5302615;28;20447;-67
2022/03/31 03:02:03;;;;;;;8.70;6.43;;;;;;;;;;5301586;28;20488;-67
2022/03/31 03:04:34;;;;;;;8.75;6.20;;;;;;;;;;5302448;28;20028;-68
2022/03/31 03:07:05;;;;;;;6.32;5.72;;;;;;;;;;5302470;28;20036;-67
2022/03/31 03:09:37;;;;;;;5.93;5.32;;;;;;;;;;5301694;28;20061;-68
2022/03/31 03:12:09;;;;;;;8.57;6.05;;;;;;;;;;5302295;28;20107;-68
2022/03/31 03:14:40;;;;;;;6.20;5.60;;;;;;;;;;5302193;28;20467;-68
2022/03/31 03:17:13;;;;;;;5.28;4.53;;;;;;;;;;5301493;28;20063;-67
2022/03/31 03:19:44;;;;;;;4.65;3.70;;;;;;;;;;5302358;28;20066;-68
2022/03/31 03:22:15;;;;;;;3.88;3.45;;;;;;;;;;5301847;28;20012;-68
2022/03/31 03:24:46;;;;;;;4.96;3.36;;;;;;;;;;5301846;28;20031;-68
2022/03/31 03:27:18;;;;;;;5.14;3.24;;;;;;;;;;5302322;28;20020;-67
2022/03/31 03:29:49;;;;;;;3.70;3.25;;;;;;;;;;5300939;28;20543;-68
2022/03/31 03:32:20;;;;;;;4.64;3.04;;;;;;;;;;5302512;28;20444;-67
2022/03/31 03:34:51;;;;;;;3.50;2.47;;;;;;;;;;5301652;28;20046;-67
2022/03/31 03:37:22;;;;;;;2.42;1.82;;;;;;;;;;5301594;28;20048;-67
2022/03/31 03:39:54;;;;;;;2.80;1.70;;;;;;;;;;5301480;28;20020;-68
2022/03/31 03:42:25;;;;;;;5.07;1.55;;;;;;;;;;5302496;28;20023;-68
2022/03/31 03:44:57;;;;;;;2.36;1.04;;;;;;;;;;5300965;28;20479;-68
2022/03/31 03:47:28;;;;;;;1.40;0.77;;;;;;;;;;5302254;28;20103;-68
2022/03/31 03:49:59;;;;;;;1.60;0.90;;;;;;;;;;5301627;28;20051;-68
2022/03/31 03:52:30;;;;;;;1.40;0.73;;;;;;;;;;5301417;28;20363;-68
2022/03/31 03:55:02;;;;;;;2.10;0.93;;;;;;;;;;5301844;28;20024;-67
2022/03/31 03:57:33;;;;;;;1.70;0.93;;;;;;;;;;5301223;28;20021;-67
2022/03/31 04:00:05;;;;;;;1.40;0.70;;;;;;;;;;5301666;28;20055;-67
2022/03/31 04:02:36;;;;;;;1.60;0.80;;;;;;;;;;5301780;28;20012;-67
2022/03/31 04:05:08;;;;;;;1.33;0.77;;;;;;;;;;5301214;28;20016;-66
2022/03/31 04:07:39;;;;;;;2.03;0.77;;;;;;;;;;5302724;28;20036;-67
2022/03/31 04:10:11;;;;;;;2.58;0.77;;;;;;;;;;5305918;28;20035;-67
2022/03/31 04:12:42;;;;;;;2.03;1.30;;;;;;;;;;5305022;28;20379;-66
2022/03/31 04:15:13;;;;;;;2.17;1.38;;;;;;;;;;5305440;28;20058;-66
2022/03/31 04:17:44;;;;;;;1.92;1.20;;;;;;;;;;5305332;28;20023;-67
2022/03/31 04:20:16;;;;;;;3.55;1.20;;;;;;;;;;5305337;28;20028;-68
2022/03/31 04:22:47;;;;;;;2.00;1.50;;;;;;;;;;5305249;28;20020;-68
2022/03/31 04:25:18;;;;;;;1.65;1.15;;;;;;;;;;5305236;28;20481;-67
2022/03/31 04:27:50;;;;;;;2.72;1.10;;;;;;;;;;5305185;28;20024;-67
2022/03/31 04:30:21;;;;;;;3.20;1.23;;;;;;;;;;5305739;28;20020;-67
2022/03/31 04:32:52;;;;;;;1.42;0.80;;;;;;;;;;5304378;28;20462;-67
2022/03/31 04:35:23;;;;;;;1.77;0.90;;;;;;;;;;5305668;28;20043;-67
2022/03/31 04:37:55;;;;;;;1.26;0.76;;;;;;;;;;5304914;28;20359;-67
2022/03/31 04:40:26;;;;;;;1.73;0.70;;;;;;;;;;5304694;28;20507;-66
2022/03/31 04:42:57;;;;;;;1.43;0.77;;;;;;;;;;5304961;28;20412;-68
2022/03/31 04:45:29;;;;;;;1.40;0.70;;;;;;;;;;5305491;28;20479;-67
2022/03/31 04:48:00;;;;;;;0.93;0.70;;;;;;;;;;5304142;28;20019;-67
2022/03/31 04:50:31;;;;;;;3.28;0.70;;;;;;;;;;5304989;28;20463;-67
2022/03/31 04:53:02;;;;;;;0.90;0.60;;;;;;;;;;5305303;28;20524;-67
2022/03/31 04:55:33;;;;;;;1.20;0.70;;;;;;;;;;5304415;28;20115;-67
2022/03/31 04:58:04;;;;;;;1.27;0.60;;;;;;;;;;5305109;28;20013;-67
2022/03/31 05:00:36;;;;;;;1.10;0.50;;;;;;;;;;5304053;28;20108;-66
2022/03/31 05:03:07;;;;;;;1.00;0.60;;;;;;;;;;5304778;28;20425;-67
2022/03/31 05:05:38;;;;;;;1.30;0.70;;;;;;;;;;5304786;28;20493;-67
2022/03/31 05:08:11;;;;;;;2.70;0.50;;;;;;;;;;5304083;28;20510;-67
2022/03/31 05:10:42;;;;;;;2.50;0.70;;;;;;;;;;5304759;28;20058;-68
2022/03/31 05:13:13;;;;;;;3.78;0.60;;;;;;;;;;5304471;28;20099;-67
2022/03/31 05:15:44;;;;;;;1.28;0.70;;;;;;;;;;5303244;28;20487;-68
2022/03/31 05:18:16;;;;;;;1.00;0.60;;;;;;;;;;5305033;28;20016;-67
2022/03/31 05:20:47;;;;;;;1.40;0.80;;;;;;;;;;5303300;28;20073;-67
2022/03/31 05:23:18;;;;;;;2.02;0.70;;;;;;;;;;5304155;28;20415;-67
2022/03/31 05:25:49;;;;;;;1.30;0.60;;;;;;;;;;5304035;28;20016;-68
2022/03/31 05:28:21;;;;;;;1.10;0.68;;;;;;;;;;5304702;28;20374;-68
2022/03/31 05:30:52;;;;;;;1.35;0.70;;;;;;;;;;5303288;28;20516;-68
2022/03/31 05:33:24;;;;;;;2.56;0.70;;;;;;;;;;5304537;28;20022;-68
2022/03/31 05:35:55;;;;;;;1.63;0.60;;;;;;;;;;5303198;28;20024;-68
2022/03/31 05:38:26;;;;;;;1.07;0.60;;;;;;;;;;5304289;28;20040;-68
2022/03/31 05:40:57;;;;;;;1.20;0.60;;;;;;;;;;5303976;28;20485;-68
2022/03/31 05:43:28;;;;;;;0.90;0.60;;;;;;;;;;5303643;28;20054;-68
2022/03/31 05:45:59;;;;;;;5.64;0.60;;;;;;;;;;5303862;28;20039;-68
2022/03/31 05:48:31;;;;;;;2.53;0.50;;;;;;;;;;5303902;28;20024;-67
2022/03/31 05:51:02;;;;;;;1.90;0.60;;;;;;;;;;5302963;28;20104;-67
2022/03/31 05:53:33;;;;;;;1.00;0.60;;;;;;;;;;5303882;28;20031;-68
2022/03/31 05:56:04;;;;;;;1.50;0.50;;;;;;;;;;5303788;28;20057;-67
2022/03/31 05:58:36;;;;;;;1.00;0.60;;;;;;;;;;5302665;28;20020;-68
2022/03/31 06:01:07;;;;;;;0.90;0.50;;;;;;;;;;5303264;28;20463;-68
2022/03/31 06:03:38;;;;;;;1.37;0.70;;;;;;;;;;5302977;28;20405;-68
2022/03/31 06:06:10;;;;;;;1.13;0.53;;;;;;;;;;5303029;28;20098;-67
2022/03/31 06:08:41;;;;;;;0.76;0.46;;;;;;;;;;5303329;28;20040;-67
2022/03/31 06:11:12;;;;;;;2.27;0.60;;;;;;;;;;5302715;28;20012;-67
2022/03/31 06:13:43;;;;;;;1.20;0.60;;;;;;;;;;5303028;28;20047;-68
2022/03/31 06:16:15;;;;;;;1.13;0.63;;;;;;;;;;5303314;28;20133;-68
2022/03/31 06:18:46;;;;;;;2.57;0.60;;;;;;;;;;5302338;28;20012;-68
2022/03/31 06:21:18;;;;;;;1.40;0.67;;;;;;;;;;5303777;28;20044;-69
2022/03/31 06:23:49;;;;;;;1.23;0.60;;;;;;;;;;5302953;28;20035;-68
2022/03/31 06:26:20;;;;;;;1.20;0.67;;;;;;;;;;5302585;28;20150;-68
2022/03/31 06:28:51;;;;;;;1.67;0.60;;;;;;;;;;5303127;28;20435;-67
2022/03/31 06:31:23;;;;;;;1.30;0.60;;;;;;;;;;5303273;28;20027;-67
2022/03/31 06:33:54;;;;;;;2.07;0.70;;;;;;;;;;5302002;28;20087;-68
2022/03/31 06:36:25;;;;;;;1.32;0.70;;;;;;;;;;5303352;28;20020;-67
2022/03/31 06:38:57;;;;;;;1.43;0.93;;;;;;;;;;5301797;28;20019;-68
2022/03/31 06:41:28;;;;;;;1.60;0.70;;;;;;;;;;5303103;28;20024;-68
2022/03/31 06:43:59;;;;;;;1.77;0.80;;;;;;;;;;5302719;28;20016;-68
2022/03/31 06:46:30;;;;;;;1.30;0.90;;;;;;;;;;5302049;28;20023;-67
2022/03/31 06:49:02;;;;;;;1.55;0.90;;;;;;;;;;5302736;28;20417;-67
2022/03/31 06:51:33;;;;;;;1.70;0.87;;;;;;;;;;5302979;28;20020;-68
2022/03/31 06:54:04;;;;;;;3.20;1.06;;;;;;;;;;5302024;28;20065;-68
2022/03/31 06:56:35;;;;;;;1.93;0.83;;;;;;;;;;5302669;28;20012;-68
2022/03/31 06:59:07;;;;;;;1.80;1.07;;;;;;;;;;5302620;28;20020;-68
2022/03/31 07:01:38;;;;;;;1.60;1.00;;;;;;;;;;5301680;28;20043;-68
2022/03/31 07:04:10;;;;;;;1.70;1.00;;;;;;;;;;5302671;28;20118;-68
2022/03/31 07:06:41;;;;;;;1.83;1.17;;;;;;;;;;5302500;28;20038;-68
2022/03/31 07:09:13;;;;;;;1.80;1.40;;;;;;;;;;5301554;28;20471;-68
2022/03/31 07:11:44;;;;;;;2.06;1.38;;;;;;;;;;5302118;28;20436;-69
2022/03/31 07:14:15;;;;;;;1.70;1.27;;;;;;;;;;5300998;28;20032;-68
2022/03/31 07:16:46;;;;;;;1.70;1.13;;;;;;;;;;5301624;28;20036;-68
2022/03/31 07:19:18;;;;;;;3.00;1.13;;;;;;;;;;5302596;28;20544;-67
2022/03/31 07:21:51;;;;;;;1.50;1.00;;;;;;;;;;5301266;28;20058;-69
2022/03/31 07:24:22;;;;;;;2.53;1.60;;;;;;;;;;5298463;28;20135;-67
2022/03/31 07:26:53;;;;;;;2.07;1.17;;;;;;;;;;5300661;28;20406;-67
2022/03/31 07:29:24;;;;;;;2.43;1.23;;;;;;;;;;5301636;28;20016;-67
2022/03/31 07:31:56;;;;;;;1.46;1.08;;;;;;;;;;5301999;28;20028;-67
2022/03/31 07:34:27;;;;;;;1.57;1.00;;;;;;;;;;5301682;28;20020;-66
2022/03/31 07:37:00;;;;;;;2.00;1.27;;;;;;;;;;5300555;28;20031;-67
2022/03/31 07:39:32;;;;;;;2.10;1.50;;;;;;;;;;5301681;28;20012;-67
2022/03/31 07:42:04;;;;;;;1.80;1.23;;;;;;;;;;5302635;28;20016;-67
2022/03/31 07:44:35;;;;;;;1.27;0.97;;;;;;;;;;5307924;28;20122;-67
2022/03/31 07:47:07;;;;;;;1.60;1.10;;;;;;;;;;5308560;28;20016;-68
2022/03/31 07:49:38;;;;;;;1.97;1.53;;;;;;;;;;5307665;28;20100;-68
2022/03/31 07:52:09;;;;;;;1.83;1.13;;;;;;;;;;5308283;28;20050;-67
2022/03/31 07:54:40;;;;;;;2.37;1.10;;;;;;;;;;5308754;28;20020;-67
2022/03/31 07:57:12;;;;;;;2.50;1.17;;;;;;;;;;5307969;28;20423;-67
2022/03/31 07:59:43;;;;;;;1.83;0.90;;;;;;;;;;5309001;28;20027;-67
2022/03/31 08:02:16;;;;;;;1.52;0.90;;;;;;;;;;5308621;28;20028;-67
2022/03/31 08:04:47;;;;;;;1.67;1.00;;;;;;;;;;5307706;28;20076;-67
2022/03/31 08:07:18;;;;;;;1.40;0.90;;;;;;;;;;5308843;28;20475;-67
2022/03/31 08:09:49;;;;;;;1.40;0.80;;;;;;;;;;5308430;28;20016;-67
2022/03/31 08:12:21;;;;;;;1.73;0.93;;;;;;;;;;5308153;28;20024;-67
2022/03/31 08:14:52;;;;;;;1.47;0.90;;;;;;;;;;5308335;28;20387;-67
2022/03/31 08:17:23;;;;;;;1.48;0.93;;;;;;;;;;5307821;28;20044;-67
2022/03/31 08:19:54;;;;;;;1.30;0.77;;;;;;;;;;5308303;28;20021;-68
2022/03/31 08:22:26;;;;;;;1.33;0.80;;;;;;;;;;5308654;28;20012;-69
2022/03/31 08:24:57;;;;;;;1.47;0.80;;;;;;;;;;5307382;28;20077;-67
2022/03/31 08:27:29;;;;;;;1.76;0.86;;;;;;;;;;5308931;28;20099;-68
2022/03/31 08:30:05;;;;;;;2.33;1.37;;;;;;;;;;5308659;28;20012;-67
2022/03/31 08:32:39;;;;;;;1.10;0.70;;;;;;;;;;5307589;28;20016;-68
2022/03/31 08:35:11;;;;;;;1.50;0.90;;;;;;;;;;5308383;28;20070;-67
2022/03/31 08:37:42;;;;;;;1.33;0.90;;;;;;;;;;5308266;28;20059;-67
2022/03/31 08:40:13;;;;;;;1.60;0.80;;;;;;;;;;5307504;28;20467;-67
2022/03/31 08:42:45;;;;;;;1.57;0.97;;;;;;;;;;5308204;28;20311;-67
2022/03/31 08:45:18;;;;;;;1.63;0.80;;;;;;;;;;5308684;28;20016;-67
2022/03/31 08:47:51;;;;;;;1.70;1.00;;;;;;;;;;5307121;28;20489;-67
2022/03/31 08:50:23;;;;;;;1.73;1.07;;;;;;;;;;5308883;28;20522;-68
2022/03/31 08:52:54;;;;;;;1.43;0.80;;;;;;;;;;5307286;28;20095;-67
2022/03/31 08:55:25;;;;;;;1.60;0.83;;;;;;;;;;5305607;28;20058;-67
2022/03/31 08:57:56;;;;;;;2.67;1.00;;;;;;;;;;5304547;28;20024;-66
2022/03/31 09:00:28;;;;;;;2.13;0.97;;;;;;;;;;5304349;28;20081;-66
2022/03/31 09:03:00;;;;;;;2.07;1.37;;;;;;;;;;5304597;28;20030;-67
2022/03/31 09:05:35;;;;;;;1.17;0.70;;;;;;;;;;5305135;28;20024;-67
2022/03/31 09:08:09;;;;;;;1.67;0.60;;;;;;;;;;5303838;28;20016;-67
2022/03/31 09:10:42;;;;;;;2.30;0.88;;;;;;;;;;5304431;28;20119;-69
2022/03/31 09:13:23;;;;;;;2.20;1.00;;;;;;;;;;5304525;28;20024;-69
2022/03/31 09:15:56;;;;;;;1.40;0.80;;;;;;;;;;5302669;28;20052;-68
2022/03/31 09:18:29;;;;;;;1.42;0.90;;;;;;;;;;5305064;28;20046;-69
2022/03/31 09:21:01;;;;;;;1.10;0.80;;;;;;;;;;5303462;28;20500;-69
2022/03/31 09:23:39;;;;;;;1.85;0.70;;;;;;;;;;5304449;28;20034;-69
2022/03/31 09:26:12;;;;;;;1.52;0.80;;;;;;;;;;5304611;28;20055;-69
2022/03/31 09:28:44;;;;;;;1.45;0.80;;;;;;;;;;5303687;28;20012;-69
2022/03/31 09:31:22;;;;;;;1.83;0.70;;;;;;;;;;5304653;28;20069;-69
2022/03/31 09:33:56;;;;;;;1.40;0.70;;;;;;;;;;5303712;28;20013;-68
2022/03/31 09:36:27;;;;;;;1.98;1.02;;;;;;;;;;5303883;28;20039;-68
2022/03/31 09:39:00;;;;;;;3.08;1.00;;;;;;;;;;5304140;28;20059;-69
2022/03/31 09:41:33;;;;;;;2.50;1.00;;;;;;;;;;5303840;28;20463;-69
2022/03/31 09:44:05;;;;;;;2.58;1.23;;;;;;;;;;5303066;28;20576;-69
2022/03/31 09:46:38;;;;;;;2.33;1.15;;;;;;;;;;5304301;28;20451;-69
2022/03/31 09:49:12;;;;;;;3.65;1.30;;;;;;;;;;5303312;28;20039;-69
2022/03/31 09:51:45;;;;;;;2.20;1.02;;;;;;;;;;5303924;28;20107;-69
2022/03/31 09:54:17;;;;;;;2.22;1.25;;;;;;;;;;5303940;28;20107;-68
2022/03/31 09:56:48;;;;;;;1.20;0.68;;;;;;;;;;5302681;28;20103;-69
2022/03/31 09:59:20;;;;;;;1.95;0.80;;;;;;;;;;5304190;28;20066;-69
2022/03/31 10:01:51;;;;;;;2.00;0.90;;;;;;;;;;5303785;28;20020;-69
2022/03/31 10:04:24;;;;;;;1.40;0.70;;;;;;;;;;5303210;28;20016;-69
2022/03/31 10:06:55;;;;;;;1.58;0.70;;;;;;;;;;5302733;28;20023;-69
2022/03/31 10:09:26;;;;;;;1.33;0.73;;;;;;;;;;5303700;28;20028;-69
2022/03/31 10:12:06;;;;;;;4.75;0.95;;;;;;;;;;5302551;28;20540;-69
2022/03/31 10:14:43;;;;;;;2.22;0.75;;;;;;;;;;5303243;28;20036;-69
2022/03/31 10:17:15;;;;;;;1.30;0.80;;;;;;;;;;5302320;28;20032;-69
2022/03/31 10:19:46;;;;;;;1.20;0.70;;;;;;;;;;5302825;28;20093;-69
2022/03/31 10:25:10;;;;;;;2.03;0.90;;;;;;;;;;5302585;28;20387;-69
2022/03/31 10:27:43;;;;;;;1.75;0.85;;;;;;;;;;5303228;28;20016;-69
2022/03/31 10:30:14;;;;;;;2.03;0.77;;;;;;;;;;5302833;28;20379;-68
2022/03/31 10:32:59;;;;;;;1.80;0.80;;;;;;;;;;5301949;28;20085;-68
2022/03/31 10:35:38;;;;;;;2.35;0.80;;;;;;;;;;5302422;28;20028;-67
2022/03/31 10:38:13;;;;;;;1.80;1.20;;;;;;;;;;5301349;28;20660;-67
2022/03/31 10:40:48;;;;;;;1.60;0.90;;;;;;;;;;5301673;28;20066;-67
2022/03/31 10:43:27;;;;;;;1.50;0.80;;;;;;;;;;5303153;28;20020;-67
2022/03/31 10:46:01;;;;;;;1.30;0.73;;;;;;;;;;5301460;28;20088;-67
2022/03/31 10:48:33;;;;;;;1.17;0.70;;;;;;;;;;5302642;28;20026;-67
2022/03/31 10:51:04;;;;;;;1.10;0.60;;;;;;;;;;5302544;28;20107;-67
2022/03/31 10:53:39;;;;;;;1.60;0.70;;;;;;;;;;5301836;28;20039;-67
2022/03/31 10:56:18;;;;;;;1.75;0.80;;;;;;;;;;5302536;28;20439;-67
2022/03/31 10:58:52;;;;;;;1.20;0.80;;;;;;;;;;5300791;28;20024;-67
2022/03/31 11:01:25;;;;;;;1.13;0.70;;;;;;;;;;5301552;28;20089;-67
2022/03/31 11:04:01;;;;;;;1.42;0.70;;;;;;;;;;5301899;28;20023;-67
2022/03/31 11:06:32;;;;;;;1.70;0.75;;;;;;;;;;5301517;28;20024;-67
2022/03/31 11:09:04;;;;;;;2.17;0.80;;;;;;;;;;5302364;28;20490;-67
2022/03/31 11:11:36;;;;;;;1.40;0.70;;;;;;;;;;5302166;28;20458;-65
2022/03/31 11:14:09;;;;;;;3.85;1.55;;;;;;;;;;5301263;28;20074;-66
2022/03/31 11:16:40;;;;;;;1.88;1.05;;;;;;;;;;5301826;28;20071;-67
2022/03/31 11:19:12;;;;;;;1.48;0.70;;;;;;;;;;5301757;28;20047;-66
2022/03/31 11:21:44;;;;;;;1.20;0.80;;;;;;;;;;5301356;28;20413;-66
2022/03/31 11:24:22;;;;;;;2.80;1.30;;;;;;;;;;5302178;28;20020;-66
2022/03/31 11:26:54;;;;;;;2.00;1.00;;;;;;;;;;5301914;28;20119;-66
2022/03/31 11:29:29;;;;;;;2.53;0.90;;;;;;;;;;5301592;28;20347;-66
2022/03/31 11:32:00;;;;;;;1.60;1.00;;;;;;;;;;5301942;28;20530;-66
2022/03/31 11:34:31;;;;;;;1.08;0.80;;;;;;;;;;5300939;28;20131;-66
2022/03/31 11:37:03;;;;;;;1.28;0.70;;;;;;;;;;5297910;28;20019;-66
2022/03/31 11:39:34;;;;;;;1.20;0.70;;;;;;;;;;5301600;28;20028;-66
2022/03/31 11:42:06;;;;;;;1.15;0.75;;;;;;;;;;5300872;28;20020;-66
2022/03/31 11:44:41;;;;;;;1.52;0.70;;;;;;;;;;5301652;28;20020;-66
2022/03/31 11:47:20;;;;;;;2.40;1.10;;;;;;;;;;5301653;28;20024;-66
2022/03/31 11:49:58;;;;;;;3.53;1.77;;;;;;;;;;5300468;28;20027;-66
2022/03/31 11:52:30;;;;;;;5.82;3.15;;;;;;;;;;5301328;28;20020;-66
2022/03/31 11:55:05;;;;;;;2.30;1.60;;;;;;;;;;5301646;28;20024;-66
2022/03/31 11:57:37;;;;;;;1.67;0.90;;;;;;;;;;5300507;28;20499;-66
2022/03/31 12:00:09;;;;;;;1.60;0.90;;;;;;;;;;5301582;28;20058;-67
2022/03/31 12:02:40;;;;;;;1.50;0.90;;;;;;;;;;5300882;28;20078;-66
2022/03/31 12:05:14;;;;;;;1.30;0.72;;;;;;;;;;5301414;28;20462;-67
2022/03/31 12:07:46;;;;;;;1.45;0.90;;;;;;;;;;5300946;28;20031;-67
2022/03/31 12:10:18;;;;;;;1.05;0.65;;;;;;;;;;5301066;28;20020;-66
2022/03/31 12:12:50;;;;;;;2.00;1.00;;;;;;;;;;5301073;28;20024;-67
2022/03/31 12:15:23;;;;;;;1.30;0.70;;;;;;;;;;5301258;28;20474;-67
2022/03/31 12:17:56;;;;;;;1.45;0.60;;;;;;;;;;5300462;28;20016;-66
2022/03/31 12:20:28;;;;;;;1.40;0.93;;;;;;;;;;5301562;28;20100;-67
2022/03/31 12:22:59;;;;;;;1.92;0.70;;;;;;;;;;5298981;28;20091;-66
2022/03/31 12:25:35;;;;;;;1.38;0.80;;;;;;;;;;5298037;28;20019;-66
2022/03/31 12:28:08;;;;;;;1.63;0.80;;;;;;;;;;5300129;28;20092;-67
2022/03/31 12:30:44;;;;;;;2.78;0.80;;;;;;;;;;5345930;27;20035;-66
2022/03/31 12:33:17;;;;;;;0.80;0.50;;;;;;;;;;5347206;27;20011;-68
2022/03/31 12:35:57;;;;;;;1.38;0.82;;;;;;;;;;5346615;27;20023;-67
2022/03/31 12:38:31;;;;;;;1.20;0.70;;;;;;;;;;5346579;27;20350;-67
2022/03/31 12:41:06;;;;;;;1.20;0.70;;;;;;;;;;5347007;27;20462;-67
2022/03/31 12:43:38;;;;;;;1.48;0.80;;;;;;;;;;5338550;27;20030;-67
2022/03/31 12:46:13;;;;;;;1.50;0.90;;;;;;;;;;5312648;28;20031;-67
2022/03/31 12:48:55;;;;;;;1.25;0.80;;;;;;;;;;5304090;28;20020;-67
2022/03/31 12:51:26;;;;;;;1.17;0.77;;;;;;;;;;5304242;28;20048;-67
2022/03/31 12:53:57;;;;;;;1.75;0.95;;;;;;;;;;5302787;28;20466;-67
2022/03/31 12:56:28;;;;;;;1.96;1.00;;;;;;;;;;5304697;28;20040;-67
2022/03/31 12:59:00;;;;;;;2.05;1.08;;;;;;;;;;5302827;28;20012;-67
2022/03/31 13:01:31;;;;;;;1.50;1.10;;;;;;;;;;5303937;28;20386;-67
2022/03/31 13:04:03;;;;;;;1.55;0.93;;;;;;;;;;5303858;28;20106;-67
2022/03/31 13:06:34;;;;;;;3.10;2.17;;;;;;;;;;5303034;28;20430;-66
2022/03/31 13:09:05;;;;;;;4.38;2.40;;;;;;;;;;5300558;28;20024;-67
2022/03/31 13:11:36;;;;;;;2.20;1.40;;;;;;;;;;5303594;28;20024;-67
2022/03/31 13:14:10;;;;;;;2.70;1.23;;;;;;;;;;5303109;28;20371;-66
2022/03/31 13:16:41;;;;;;;1.48;1.30;;;;;;;;;;5303178;28;20318;-66
2022/03/31 13:19:13;;;;;;;1.58;1.10;;;;;;;;;;5303739;28;20486;-67
2022/03/31 13:21:44;;;;;;;2.00;1.38;;;;;;;;;;5302263;28;20019;-67
2022/03/31 13:24:15;;;;;;;1.98;1.40;;;;;;;;;;5303929;28;20020;-67
2022/03/31 13:26:48;;;;;;;1.52;1.05;;;;;;;;;;5302308;28;20020;-66
2022/03/31 13:29:23;;;;;;;2.00;1.27;;;;;;;;;;5303877;28;20521;-66
2022/03/31 13:31:55;;;;;;;1.77;1.30;;;;;;;;;;5303165;28;20370;-66
2022/03/31 13:34:27;;;;;;;2.65;1.70;;;;;;;;;;5302897;28;20031;-66
2022/03/31 13:37:01;;;;;;;2.63;1.80;;;;;;;;;;5302717;28;20035;-66
2022/03/31 13:39:34;;;;;;;3.05;1.98;;;;;;;;;;5302987;28;20023;-68
2022/03/31 13:42:06;;;;;;;4.18;2.20;;;;;;;;;;5301847;28;20482;-68
2022/03/31 13:44:39;;;;;;;3.00;2.28;;;;;;;;;;5303240;28;20379;-69
2022/03/31 13:47:11;;;;;;;5.15;2.53;;;;;;;;;;5302574;28;20039;-69
2022/03/31 13:49:42;;;;;;;2.50;2.30;;;;;;;;;;5302336;28;20016;-68
2022/03/31 13:52:13;;;;;;;2.45;1.88;;;;;;;;;;5303129;28;20570;-69
2022/03/31 13:54:45;;;;;;;2.60;2.10;;;;;;;;;;5302563;28;20031;-68
2022/03/31 14:02:55;;;;;;;4.10;3.70;;;;;;;;;;5301814;28;20020;-67
2022/03/31 14:05:27;;;;;;;3.22;2.74;;;;;;;;;;5302915;28;20024;-67
2022/03/31 14:07:58;;;;;;;3.33;3.03;;;;;;;;;;5302540;28;20032;-67
2022/03/31 14:10:30;;;;;;;3.08;2.58;;;;;;;;;;5302182;28;20365;-66
2022/03/31 14:13:01;;;;;;;4.00;3.33;;;;;;;;;;5302495;28;20254;-67
2022/03/31 14:15:32;;;;;;;2.85;2.45;;;;;;;;;;5302408;28;20117;-67
2022/03/31 14:18:06;;;;;;;4.28;2.40;;;;;;;;;;5301960;28;20028;-67
2022/03/31 14:20:37;;;;;;;2.97;2.67;;;;;;;;;;5302424;28;20029;-68
2022/03/31 14:23:08;;;;;;;3.47;2.67;;;;;;;;;;5301834;28;20020;-67
2022/03/31 14:25:40;;;;;;;3.30;2.80;;;;;;;;;;5302405;28;20016;-68
2022/03/31 14:28:11;;;;;;;2.70;2.50;;;;;;;;;;5302170;28;20008;-68
2022/03/31 14:30:42;;;;;;;3.62;2.20;;;;;;;;;;5301356;28;20447;-67
2022/03/31 14:33:13;;;;;;;2.58;1.35;;;;;;;;;;5301682;28;20542;-67
2022/03/31 14:35:45;;;;;;;1.60;1.20;;;;;;;;;;5301898;28;20043;-67
2022/03/31 14:38:17;;;;;;;1.50;1.10;;;;;;;;;;5301488;28;20016;-68
2022/03/31 14:40:48;;;;;;;1.10;0.80;;;;;;;;;;5301957;28;20467;-67
2022/03/31 14:43:20;;;;;;;1.20;0.80;;;;;;;;;;5301815;28;20040;-67
2022/03/31 14:45:51;;;;;;;1.30;0.90;;;;;;;;;;5300948;28;20028;-67
2022/03/31 14:48:23;;;;;;;1.28;0.88;;;;;;;;;;5301928;28;20023;-67
2022/03/31 14:50:55;;;;;;;1.23;1.00;;;;;;;;;;5301810;28;20036;-67
2022/03/31 14:53:27;;;;;;;1.10;0.80;;;;;;;;;;5300733;28;20024;-67
2022/03/31 14:55:59;;;;;;;1.40;1.13;;;;;;;;;;5301678;28;20452;-66
2022/03/31 14:58:30;;;;;;;1.30;0.90;;;;;;;;;;5296626;28;20020;-66
2022/03/31 15:01:01;;;;;;;1.28;0.82;;;;;;;;;;5301249;28;20042;-67
2022/03/31 15:03:33;;;;;;;9.63;4.38;;;;;;;;;;5300614;28;20130;-66
2022/03/31 15:06:04;;;;;;;3.95;2.22;;;;;;;;;;5300845;28;20154;-66
2022/03/31 15:08:35;;;;;;;2.78;1.08;;;;;;;;;;5299218;28;20020;-66
2022/03/31 15:16:46;;;;;;;1.25;0.75;;;;;;;;;;5300542;28;20075;-67
2022/03/31 15:19:17;;;;;;;1.38;0.88;;;;;;;;;;5308092;28;20047;-67
2022/03/31 15:21:49;;;;;;;1.42;0.80;;;;;;;;;;5321352;28;20076;-67
2022/03/31 15:24:21;;;;;;;1.67;0.80;;;;;;;;;;5322627;28;20397;-67
2022/03/31 15:26:52;;;;;;;1.40;1.02;;;;;;;;;;5321071;28;20036;-67
2022/03/31 15:29:23;;;;;;;1.27;0.80;;;;;;;;;;5322934;28;20520;-67